createdAt,value
2022-09-16T00:01:55.372Z,1.30
2022-09-16T00:05:01.541Z,1.20
2022-09-16T00:08:46.225Z,1.40
2022-09-16T00:12:37.494Z,2.10
2022-09-16T00:16:27.699Z,1.30
2022-09-16T00:19:53.695Z,1.30
2022-09-16T00:23:26.142Z,1.40
2022-09-16T00:27:03.805Z,1.20
2022-09-16T00:30:57.612Z,1.80
2022-09-16T00:34:54.364Z,1.20
2022-09-16T00:38:10.080Z,1.30
2022-09-16T00:42:13.873Z,1.50
2022-09-16T00:46:14.136Z,1.50
2022-09-16T00:49:52.573Z,2.30
2022-09-16T00:53:36.630Z,1.60
2022-09-16T00:57:27.897Z,2.70
2022-09-16T01:01:35.192Z,1.60
2022-09-16T01:05:15.447Z,1.70
2022-09-16T01:09:00.912Z,1.60
2022-09-16T01:12:57.826Z,1.80
2022-09-16T01:17:03.771Z,1.50
2022-09-16T01:20:45.391Z,1.80
2022-09-16T01:24:44.202Z,1.70
2022-09-16T01:29:12.549Z,1.60
2022-09-16T01:33:12.916Z,1.50
2022-09-16T01:36:38.185Z,1.80
2022-09-16T01:40:21.519Z,1.40
2022-09-16T01:44:28.212Z,1.50
2022-09-16T01:48:11.074Z,1.50
2022-09-16T01:52:14.122Z,1.50
2022-09-16T01:56:12.970Z,1.30
2022-09-16T02:00:19.295Z,1.60
2022-09-16T02:03:54.437Z,1.40
2022-09-16T02:07:58.249Z,1.70
2022-09-16T02:11:51.276Z,1.70
2022-09-16T02:15:31.464Z,2.50
2022-09-16T02:19:03.732Z,1.50
2022-09-16T02:23:06.552Z,1.60
2022-09-16T02:26:44.678Z,1.30
2022-09-16T02:30:34.475Z,1.50
2022-09-16T02:34:34.862Z,1.70
2022-09-16T02:38:27.622Z,2.10
2022-09-16T02:42:27.465Z,1.80
2022-09-16T02:46:32.987Z,1.80
2022-09-16T02:50:45.680Z,1.80
2022-09-16T02:54:28.482Z,1.80
2022-09-16T02:58:25.157Z,1.80
2022-09-16T03:02:04.418Z,1.80
2022-09-16T03:05:58.226Z,1.60
2022-09-16T03:09:23.634Z,2.20
2022-09-16T03:13:34.981Z,1.80
2022-09-16T03:17:36.555Z,2.10
2022-09-16T03:21:49.639Z,2.50
2022-09-16T03:25:15.331Z,2.50
2022-09-16T03:29:16.201Z,2.60
2022-09-16T03:33:00.509Z,2.00
2022-09-16T03:36:37.560Z,2.20
2022-09-16T03:40:22.089Z,2.20
2022-09-16T03:44:01.438Z,2.10
2022-09-16T03:47:34.879Z,2.40
2022-09-16T03:50:44.267Z,1.70
2022-09-16T03:54:47.975Z,2.20
2022-09-16T03:58:29.556Z,1.90
2022-09-16T04:02:17.186Z,2.20
2022-09-16T04:06:03.726Z,2.80
2022-09-16T04:09:50.872Z,2.20
2022-09-16T04:13:16.453Z,2.60
2022-09-16T04:17:05.113Z,2.50
2022-09-16T04:21:09.004Z,2.80
2022-09-16T04:24:57.560Z,3.50
2022-09-16T04:29:01.332Z,2.10
2022-09-16T04:32:48.117Z,2.40
2022-09-16T04:36:51.977Z,2.60
2022-09-16T04:43:48.802Z,2.80
2022-09-16T04:47:41.155Z,2.40
2022-09-16T04:51:23.760Z,2.40
2022-09-16T04:54:50.005Z,2.50
2022-09-16T04:58:37.140Z,3.00
2022-09-16T05:02:29.540Z,2.70
2022-09-16T05:06:13.079Z,2.40
2022-09-16T05:10:01.923Z,2.60
2022-09-16T05:13:30.547Z,2.30
2022-09-16T05:17:49.444Z,3.00
2022-09-16T05:21:19.708Z,3.20
2022-09-16T05:25:00.344Z,2.70
2022-09-16T05:28:32.310Z,3.20
2022-09-16T05:32:36.170Z,2.40
2022-09-16T05:35:59.879Z,2.90
2022-09-16T05:39:23.808Z,2.70
2022-09-16T05:42:59.448Z,2.70
2022-09-16T05:46:28.286Z,3.10
2022-09-16T05:50:14.518Z,2.80
2022-09-16T05:53:40.033Z,2.50
2022-09-16T05:57:26.528Z,2.90
2022-09-16T06:01:17.748Z,2.50
2022-09-16T06:04:31.847Z,2.50
2022-09-16T06:07:56.054Z,2.40
2022-09-16T06:11:35.170Z,2.30
2022-09-16T06:15:07.251Z,2.60
2022-09-16T06:18:36.952Z,2.40
2022-09-16T06:22:10.660Z,2.60
2022-09-16T06:25:39.420Z,3.30
2022-09-16T06:29:23.849Z,2.60
2022-09-16T06:33:00.661Z,2.60
2022-09-16T06:36:17.265Z,2.80
2022-09-16T06:39:27.194Z,3.80
2022-09-16T06:43:01.103Z,3.90
2022-09-16T06:49:54.208Z,3.60
2022-09-16T06:53:40.655Z,3.70
2022-09-16T06:57:34.497Z,3.50
2022-09-16T07:01:12.676Z,3.40
2022-09-16T07:04:43.724Z,3.40
2022-09-16T07:08:47.538Z,3.50
2022-09-16T07:12:23.765Z,3.10
2022-09-16T07:16:19.478Z,2.60
2022-09-16T07:19:30.755Z,2.80
2022-09-16T07:23:06.140Z,3.20
2022-09-16T07:26:53.829Z,2.70
2022-09-16T07:30:35.184Z,2.70
2022-09-16T07:34:12.785Z,2.80
2022-09-16T07:38:09.205Z,2.30
2022-09-16T07:41:35.441Z,2.60
2022-09-16T07:45:01.916Z,4.10
2022-09-16T07:48:35.478Z,2.20
2022-09-16T07:52:09.978Z,2.60
2022-09-16T07:55:45.438Z,2.20
2022-09-16T07:58:43.065Z,2.40
2022-09-16T08:01:44.964Z,2.00
2022-09-16T08:05:48.893Z,2.60
2022-09-16T08:09:44.254Z,1.50
2022-09-16T08:13:23.516Z,2.40
2022-09-16T08:17:29.611Z,2.30
2022-09-16T08:21:19.265Z,2.00
2022-09-16T08:24:53.776Z,2.60
2022-09-16T08:28:50.889Z,1.30
2022-09-16T08:32:42.648Z,2.10
2022-09-16T08:36:40.369Z,2.00
2022-09-16T08:40:34.251Z,2.00
2022-09-16T08:47:19.356Z,1.50
2022-09-16T08:50:59.156Z,2.20
2022-09-16T08:54:51.800Z,1.60
2022-09-16T08:59:15.659Z,1.50
2022-09-16T09:02:55.019Z,1.60
2022-09-16T09:06:56.354Z,2.60
2022-09-16T09:11:02.119Z,1.40
2022-09-16T09:15:10.371Z,1.80
2022-09-16T09:19:32.729Z,1.40
2022-09-16T09:23:27.563Z,1.90
2022-09-16T09:27:01.296Z,1.80
2022-09-16T09:30:42.849Z,1.40
2022-09-16T09:34:55.278Z,1.90
2022-09-16T09:38:44.564Z,2.00
2022-09-16T09:42:46.204Z,2.40
2022-09-16T09:46:27.849Z,2.00
2022-09-16T09:50:11.125Z,2.70
2022-09-16T09:54:12.551Z,2.60
2022-09-16T09:58:19.229Z,2.00
2022-09-16T10:01:52.738Z,2.00
2022-09-16T10:05:14.951Z,1.90
2022-09-16T10:08:47.795Z,2.10
2022-09-16T10:12:20.255Z,1.40
2022-09-16T10:16:10.759Z,1.40
2022-09-16T10:19:58.378Z,1.50
2022-09-16T10:23:54.122Z,1.70
2022-09-16T10:27:21.887Z,2.50
2022-09-16T10:31:08.217Z,1.20
2022-09-16T10:34:56.908Z,1.80
2022-09-16T10:38:10.456Z,1.50
2022-09-16T10:42:06.158Z,1.40
2022-09-16T10:45:33.116Z,1.10
2022-09-16T10:48:56.019Z,1.00
2022-09-16T10:52:43.174Z,2.00
2022-09-16T10:55:54.516Z,1.30
2022-09-16T10:58:48.280Z,1.40
2022-09-16T11:02:14.951Z,1.60
2022-09-16T11:05:57.003Z,1.60
2022-09-16T11:09:27.812Z,1.20
2022-09-16T11:13:10.590Z,1.20
2022-09-16T11:17:04.135Z,1.20
2022-09-16T11:21:12.583Z,1.60
2022-09-16T11:24:43.504Z,1.20
2022-09-16T11:28:31.593Z,1.00
2022-09-16T11:32:14.059Z,1.20
2022-09-16T11:35:45.793Z,1.30
2022-09-16T11:39:31.650Z,0.80
2022-09-16T11:43:26.708Z,0.90
2022-09-16T11:47:40.847Z,1.00
2022-09-16T11:51:20.219Z,1.10
2022-09-16T11:55:13.725Z,1.20
2022-09-16T11:59:06.469Z,1.50
2022-09-16T12:02:28.144Z,1.10
2022-09-16T12:06:14.912Z,1.00
2022-09-16T12:09:37.216Z,0.90
2022-09-16T12:12:51.146Z,1.10
2022-09-16T12:16:19.693Z,0.80
2022-09-16T12:20:14.845Z,0.90
2022-09-16T12:23:51.408Z,1.10
2022-09-16T12:27:30.023Z,0.90
2022-09-16T12:30:56.258Z,0.70
2022-09-16T12:34:27.497Z,0.80
2022-09-16T12:37:47.605Z,0.70
2022-09-16T12:41:42.925Z,1.00
2022-09-16T12:45:25.832Z,0.80
2022-09-16T12:49:26.282Z,0.90
2022-09-16T12:53:19.828Z,0.60
2022-09-16T12:56:48.294Z,0.60
2022-09-16T13:00:25.117Z,0.90
2022-09-16T13:04:02.164Z,1.40
2022-09-16T13:07:31.801Z,1.00
2022-09-16T13:11:30.344Z,0.90
2022-09-16T13:15:04.860Z,1.20
2022-09-16T13:19:05.677Z,1.20
2022-09-16T13:23:03.290Z,1.00
2022-09-16T13:26:19.058Z,1.20
2022-09-16T13:30:24.860Z,1.90
2022-09-16T13:33:44.420Z,1.10
2022-09-16T13:37:19.584Z,0.80
2022-09-16T13:41:03.932Z,0.50
2022-09-16T13:45:01.911Z,1.10
2022-09-16T13:48:34.115Z,1.10
2022-09-16T13:51:36.007Z,0.80
2022-09-16T13:55:15.602Z,1.10
2022-09-16T13:58:40.317Z,1.10
2022-09-16T14:01:59.743Z,0.70
2022-09-16T14:05:58.203Z,0.80
2022-09-16T14:09:18.548Z,1.20
2022-09-16T14:13:05.242Z,2.00
2022-09-16T14:16:15.690Z,1.30
2022-09-16T14:19:32.739Z,1.30
2022-09-16T14:22:31.726Z,1.30
2022-09-16T14:26:10.984Z,1.30
2022-09-16T14:29:53.636Z,0.90
2022-09-16T14:33:00.031Z,1.00
2022-09-16T14:36:08.689Z,0.70
2022-09-16T14:39:33.993Z,1.20
2022-09-16T14:43:03.746Z,1.30
2022-09-16T14:46:06.132Z,1.30
2022-09-16T14:49:49.508Z,0.80
2022-09-16T14:53:10.049Z,1.20
2022-09-16T14:56:42.652Z,0.70
2022-09-16T15:00:28.995Z,1.10
2022-09-16T15:03:52.648Z,1.00
2022-09-16T15:07:23.397Z,1.40
2022-09-16T15:11:08.178Z,1.10
2022-09-16T15:14:47.975Z,1.20
2022-09-16T15:18:24.722Z,1.30
2022-09-16T15:21:59.901Z,1.00
2022-09-16T15:25:25.583Z,1.20
2022-09-16T15:29:03.179Z,1.30
2022-09-16T15:32:46.694Z,1.20
2022-09-16T15:36:12.531Z,0.90
2022-09-16T15:39:43.886Z,1.30
2022-09-16T15:43:12.639Z,1.30
2022-09-16T15:46:39.217Z,0.70
2022-09-16T15:50:15.284Z,0.90
2022-09-16T15:54:06.010Z,1.30
2022-09-16T15:57:25.833Z,1.30
2022-09-16T16:01:19.915Z,1.50
2022-09-16T16:04:29.862Z,1.80
2022-09-16T16:07:57.610Z,1.70
2022-09-16T16:12:07.237Z,2.00
2022-09-16T16:15:55.362Z,1.60
2022-09-16T16:19:39.207Z,1.10
2022-09-16T16:23:25.958Z,1.60
2022-09-16T16:26:56.115Z,1.50
2022-09-16T16:30:19.750Z,1.20
2022-09-16T16:34:23.486Z,2.20
2022-09-16T16:37:56.384Z,1.20
2022-09-16T16:41:46.588Z,1.60
2022-09-16T16:45:35.176Z,1.40
2022-09-16T16:49:01.709Z,1.80
2022-09-16T16:52:49.014Z,1.10
2022-09-16T16:59:59.695Z,1.30
2022-09-16T17:03:53.373Z,1.60
2022-09-16T17:07:26.286Z,1.70
2022-09-16T17:10:51.872Z,2.00
2022-09-16T17:14:31.070Z,1.80
2022-09-16T17:18:12.634Z,1.90
2022-09-16T17:21:57.327Z,2.00
2022-09-16T17:25:21.399Z,1.70
2022-09-16T17:28:44.845Z,1.50
2022-09-16T17:32:24.729Z,1.70
2022-09-16T17:36:18.420Z,1.60
2022-09-16T17:39:49.350Z,1.60
2022-09-16T17:43:18.043Z,1.50
2022-09-16T17:47:10.380Z,1.50
2022-09-16T17:50:53.254Z,1.60
2022-09-16T17:54:24.523Z,1.80
2022-09-16T17:58:28.427Z,2.80
2022-09-16T18:02:21.935Z,1.50
2022-09-16T18:05:38.321Z,1.30
2022-09-16T18:09:22.018Z,2.00
2022-09-16T18:12:44.428Z,2.20
2022-09-16T18:16:24.006Z,2.00
2022-09-16T18:19:34.173Z,1.50
2022-09-16T18:23:20.843Z,1.70
2022-09-16T18:26:50.231Z,1.60
2022-09-16T18:30:13.963Z,2.00
2022-09-16T18:33:24.096Z,2.10
2022-09-16T18:36:56.862Z,2.10
2022-09-16T18:40:14.185Z,1.80
2022-09-16T18:43:44.471Z,2.10
2022-09-16T18:47:11.367Z,2.20
2022-09-16T18:50:15.561Z,2.40
2022-09-16T18:54:03.744Z,2.30
2022-09-16T18:57:42.041Z,1.90
2022-09-16T19:01:48.704Z,3.60
2022-09-16T19:05:11.797Z,2.50
2022-09-16T19:08:14.565Z,2.20
2022-09-16T19:12:00.752Z,2.80
2022-09-16T19:19:38.891Z,2.70
2022-09-16T19:23:28.315Z,2.80
2022-09-16T19:27:32.369Z,2.80
2022-09-16T19:34:51.378Z,2.20
2022-09-16T19:38:30.026Z,2.30
2022-09-16T19:42:09.983Z,2.80
2022-09-16T19:45:37.022Z,2.40
2022-09-16T19:49:14.967Z,2.30
2022-09-16T19:53:21.081Z,2.30
2022-09-16T19:57:16.193Z,2.40
2022-09-16T20:00:56.440Z,2.60
2022-09-16T20:04:44.267Z,3.00
2022-09-16T20:08:41.292Z,3.00
2022-09-16T20:12:08.488Z,2.70
2022-09-16T20:16:02.110Z,2.70
2022-09-16T20:23:42.621Z,2.90
2022-09-16T20:27:46.375Z,2.60
2022-09-16T20:31:50.218Z,3.10
2022-09-16T20:39:27.362Z,3.00
2022-09-16T20:43:31.247Z,2.80
2022-09-16T20:47:13.281Z,2.60
2022-09-16T20:51:17.114Z,2.80
2022-09-16T20:55:04.669Z,2.60
2022-09-16T20:58:59.456Z,2.90
2022-09-16T21:05:32.066Z,3.00
2022-09-16T21:09:35.910Z,2.80
2022-09-16T21:13:32.494Z,2.80
2022-09-16T21:17:25.405Z,2.80
2022-09-16T21:20:41.990Z,2.30
2022-09-16T21:24:25.663Z,2.80
2022-09-16T21:27:52.055Z,2.00
2022-09-16T21:31:58.897Z,2.00
2022-09-16T21:35:32.485Z,2.00
2022-09-16T21:39:36.253Z,2.20
2022-09-16T21:43:07.223Z,2.10
2022-09-16T21:46:06.274Z,2.20
2022-09-16T21:50:00.599Z,2.30
2022-09-16T21:53:54.370Z,2.30
2022-09-16T21:57:36.585Z,1.90
2022-09-16T22:01:26.528Z,2.20
2022-09-16T22:05:14.528Z,2.20
2022-09-16T22:09:09.786Z,2.30
2022-09-16T22:12:46.694Z,2.20
2022-09-16T22:16:27.474Z,2.30
2022-09-16T22:19:58.670Z,2.20
2022-09-16T22:23:51.190Z,2.40
2022-09-16T22:27:37.898Z,2.20
2022-09-16T22:31:17.429Z,2.10
2022-09-16T22:34:36.506Z,1.90
2022-09-16T22:38:31.348Z,2.70
2022-09-16T22:42:19.026Z,2.50
2022-09-16T22:45:58.218Z,2.40
2022-09-16T22:49:44.897Z,2.20
2022-09-16T22:53:41.822Z,2.30
2022-09-16T22:57:29.411Z,2.30
2022-09-16T23:01:23.231Z,2.10
2022-09-16T23:04:47.501Z,2.20
2022-09-16T23:08:30.983Z,2.40
2022-09-16T23:12:23.815Z,2.70
2022-09-16T23:15:59.504Z,2.50
2022-09-16T23:19:43.431Z,3.40
2022-09-16T23:23:38.798Z,2.40
2022-09-16T23:27:23.419Z,2.10
2022-09-16T23:31:07.116Z,2.50
2022-09-16T23:34:57.520Z,1.90
2022-09-16T23:38:24.245Z,2.20
2022-09-16T23:42:03.928Z,2.50
2022-09-16T23:46:07.920Z,2.00
2022-09-16T23:50:03.330Z,2.30
2022-09-16T23:53:39.546Z,2.20
2022-09-16T23:57:42.294Z,2.10
